createdAt,value
2019-06-10T00:00:31.285Z,20.41
2019-06-10T00:01:31.487Z,20.47
2019-06-10T00:02:30.878Z,20.35
2019-06-10T00:03:31.801Z,20.39
2019-06-10T00:04:30.895Z,20.48
2019-06-10T00:05:30.543Z,20.52
2019-06-10T00:06:31.110Z,20.57
2019-06-10T00:07:31.595Z,20.50
2019-06-10T00:08:30.817Z,20.42
2019-06-10T00:09:31.189Z,20.38
2019-06-10T00:10:31.099Z,20.42
2019-06-10T00:11:31.489Z,20.51
2019-06-10T00:12:31.385Z,20.51
2019-06-10T00:13:31.381Z,20.57
2019-06-10T00:14:31.500Z,20.51
2019-06-10T00:15:31.416Z,20.55
2019-06-10T00:16:30.898Z,20.55
2019-06-10T00:17:31.456Z,20.52
2019-06-10T00:18:38.426Z,20.52
2019-06-10T00:19:31.690Z,20.50
2019-06-10T00:20:30.642Z,20.54
2019-06-10T00:21:30.868Z,20.50
2019-06-10T00:22:31.499Z,20.54
2019-06-10T00:23:32.034Z,20.48
2019-06-10T00:24:31.446Z,20.41
2019-06-10T00:25:31.365Z,20.38
2019-06-10T00:26:30.832Z,20.51
2019-06-10T00:27:31.186Z,20.55
2019-06-10T00:28:31.110Z,20.52
2019-06-10T00:29:31.273Z,20.51
2019-06-10T00:30:31.321Z,20.55
2019-06-10T00:31:31.242Z,20.54
2019-06-10T00:32:32.022Z,20.48
2019-06-10T00:33:30.955Z,20.55
2019-06-10T00:34:31.583Z,20.55
2019-06-10T00:35:31.507Z,20.55
2019-06-10T00:36:30.866Z,20.51
2019-06-10T00:37:31.514Z,20.50
2019-06-10T00:38:31.925Z,20.47
2019-06-10T00:39:31.284Z,20.52
2019-06-10T00:40:31.688Z,20.55
2019-06-10T00:41:31.255Z,20.51
2019-06-10T00:42:31.416Z,20.55
2019-06-10T00:43:30.763Z,20.52
2019-06-10T00:44:31.151Z,20.54
2019-06-10T00:45:31.562Z,20.47
2019-06-10T00:46:31.677Z,20.51
2019-06-10T00:47:30.841Z,20.52
2019-06-10T00:48:32.286Z,20.52
2019-06-10T00:49:31.683Z,20.52
2019-06-10T00:50:30.877Z,20.48
2019-06-10T00:51:31.356Z,20.52
2019-06-10T00:52:30.850Z,20.54
2019-06-10T00:53:31.694Z,20.51
2019-06-10T00:54:31.159Z,20.36
2019-06-10T00:55:31.442Z,20.51
2019-06-10T00:56:30.881Z,20.38
2019-06-10T00:57:31.466Z,20.54
2019-06-10T00:58:32.031Z,20.39
2019-06-10T00:59:31.198Z,20.42
2019-06-10T01:00:31.825Z,20.41
2019-06-10T01:01:31.267Z,20.38
2019-06-10T01:02:31.861Z,20.42
2019-06-10T01:03:31.323Z,20.38
2019-06-10T01:04:31.859Z,20.41
2019-06-10T01:05:31.259Z,20.36
2019-06-10T01:06:31.827Z,20.38
2019-06-10T01:07:31.090Z,20.38
2019-06-10T01:08:31.591Z,20.39
2019-06-10T01:09:31.090Z,20.32
2019-06-10T01:10:31.655Z,20.36
2019-06-10T01:11:31.146Z,20.38
2019-06-10T01:12:31.662Z,20.39
2019-06-10T01:13:30.970Z,20.39
2019-06-10T01:14:31.987Z,20.31
2019-06-10T01:15:31.211Z,20.29
2019-06-10T01:16:31.805Z,20.26
2019-06-10T01:17:31.157Z,20.28
2019-06-10T01:18:37.476Z,20.29
2019-06-10T01:19:31.074Z,20.24
2019-06-10T01:20:32.451Z,20.20
2019-06-10T01:21:31.377Z,20.18
2019-06-10T01:22:31.605Z,20.23
2019-06-10T01:23:31.077Z,20.23
2019-06-10T01:24:31.476Z,20.17
2019-06-10T01:25:31.082Z,20.26
2019-06-10T01:26:31.101Z,20.05
2019-06-10T01:27:31.522Z,20.21
2019-06-10T01:28:31.436Z,20.08
2019-06-10T01:29:31.392Z,20.14
2019-06-10T01:30:31.239Z,20.06
2019-06-10T01:31:31.793Z,20.05
2019-06-10T01:32:31.176Z,20.14
2019-06-10T01:33:31.960Z,20.13
2019-06-10T01:34:31.071Z,20.06
2019-06-10T01:35:30.661Z,20.17
2019-06-10T01:36:31.385Z,20.06
2019-06-10T01:37:31.101Z,20.10
2019-06-10T01:38:31.679Z,20.06
2019-06-10T01:39:30.966Z,20.06
2019-06-10T01:40:31.464Z,20.01
2019-06-10T01:41:30.715Z,20.03
2019-06-10T01:42:30.777Z,19.96
2019-06-10T01:43:32.059Z,20.02
2019-06-10T01:44:31.128Z,19.96
2019-06-10T01:45:31.224Z,19.95
2019-06-10T01:46:31.668Z,19.95
2019-06-10T01:47:31.065Z,19.98
2019-06-10T01:48:43.787Z,19.98
2019-06-10T01:49:30.894Z,19.99
2019-06-10T01:50:31.151Z,19.88
2019-06-10T01:51:31.697Z,19.92
2019-06-10T01:52:31.688Z,19.94
2019-06-10T01:53:31.418Z,19.91
2019-06-10T01:54:31.652Z,19.96
2019-06-10T01:55:31.152Z,19.91
2019-06-10T01:56:31.515Z,19.88
2019-06-10T01:57:30.886Z,19.84
2019-06-10T01:58:31.538Z,19.92
2019-06-10T01:59:31.246Z,19.80
2019-06-10T02:00:31.209Z,19.83
2019-06-10T02:01:30.780Z,19.83
2019-06-10T02:02:34.967Z,19.83
2019-06-10T02:03:31.388Z,19.86
2019-06-10T02:04:32.063Z,19.80
2019-06-10T02:05:31.194Z,19.83
2019-06-10T02:06:31.718Z,19.84
2019-06-10T02:07:32.029Z,19.81
2019-06-10T02:08:31.671Z,19.80
2019-06-10T02:09:31.115Z,19.80
2019-06-10T02:10:31.045Z,19.83
2019-06-10T02:11:31.726Z,19.83
2019-06-10T02:12:31.471Z,19.81
2019-06-10T02:13:32.417Z,19.84
2019-06-10T02:14:31.762Z,19.81
2019-06-10T02:15:31.525Z,19.77
2019-06-10T02:16:32.539Z,19.76
2019-06-10T02:17:31.475Z,19.76
2019-06-10T02:18:31.996Z,19.74
2019-06-10T02:19:31.277Z,19.71
2019-06-10T02:20:31.750Z,19.63
2019-06-10T02:21:31.189Z,19.66
2019-06-10T02:22:31.849Z,19.56
2019-06-10T02:23:31.476Z,19.56
2019-06-10T02:24:31.512Z,19.73
2019-06-10T02:25:30.680Z,19.63
2019-06-10T02:26:30.919Z,19.71
2019-06-10T02:27:31.521Z,19.71
2019-06-10T02:28:31.785Z,19.62
2019-06-10T02:29:30.917Z,19.69
2019-06-10T02:30:44.465Z,19.74
2019-06-10T02:31:37.260Z,19.68
2019-06-10T02:32:36.254Z,19.74
2019-06-10T02:33:36.216Z,19.66
2019-06-10T02:34:36.632Z,19.71
2019-06-10T02:35:44.056Z,19.66
2019-06-10T02:36:36.237Z,19.59
2019-06-10T02:37:33.937Z,19.62
2019-06-10T02:38:35.574Z,19.58
2019-06-10T02:39:35.139Z,19.59
2019-06-10T02:40:33.132Z,19.44
2019-06-10T02:41:35.367Z,19.39
2019-06-10T02:42:34.837Z,19.37
2019-06-10T02:43:33.266Z,19.26
2019-06-10T02:44:34.362Z,19.19
2019-06-10T02:45:33.753Z,19.23
2019-06-10T02:46:35.588Z,19.08
2019-06-10T02:47:33.439Z,19.04
2019-06-10T02:48:34.139Z,18.95
2019-06-10T02:49:51.600Z,18.92
2019-06-10T02:50:33.331Z,18.87
2019-06-10T02:51:35.208Z,18.82
2019-06-10T02:52:34.296Z,18.90
2019-06-10T02:53:35.334Z,18.92
2019-06-10T02:54:35.477Z,18.88
2019-06-10T02:55:34.790Z,18.84
2019-06-10T02:56:35.924Z,18.81
2019-06-10T02:57:39.032Z,18.81
2019-06-10T02:58:37.971Z,18.81
2019-06-10T02:59:32.813Z,18.82
2019-06-10T03:00:39.602Z,18.90
2019-06-10T03:01:36.998Z,18.80
2019-06-10T03:02:35.931Z,18.90
2019-06-10T03:03:39.305Z,18.95
2019-06-10T03:04:36.517Z,18.85
2019-06-10T03:05:40.312Z,18.85
2019-06-10T03:06:38.510Z,18.87
2019-06-10T03:07:34.613Z,18.91
2019-06-10T03:08:32.758Z,18.91
2019-06-10T03:09:32.880Z,18.87
2019-06-10T03:10:36.101Z,18.99
2019-06-10T03:11:36.021Z,18.94
2019-06-10T03:12:33.107Z,18.81
2019-06-10T03:13:33.137Z,18.81
2019-06-10T03:14:32.874Z,18.84
2019-06-10T03:15:32.145Z,18.90
2019-06-10T03:16:32.924Z,18.81
2019-06-10T03:17:32.290Z,18.88
2019-06-10T03:18:32.815Z,18.87
2019-06-10T03:19:46.547Z,18.94
2019-06-10T03:20:32.034Z,19.06
2019-06-10T03:21:32.392Z,19.13
2019-06-10T03:22:32.734Z,19.21
2019-06-10T03:23:32.063Z,19.16
2019-06-10T03:24:32.773Z,19.29
2019-06-10T03:25:32.812Z,19.32
2019-06-10T03:26:32.330Z,19.31
2019-06-10T03:27:32.866Z,19.31
2019-06-10T03:28:32.068Z,19.37
2019-06-10T03:29:32.762Z,19.37
2019-06-10T03:30:46.648Z,19.48
2019-06-10T03:31:38.862Z,19.39
2019-06-10T03:32:36.701Z,19.44
2019-06-10T03:33:40.318Z,19.44
2019-06-10T03:34:37.252Z,19.33
2019-06-10T03:35:32.950Z,19.39
2019-06-10T03:36:32.252Z,19.43
2019-06-10T03:37:32.891Z,19.43
2019-06-10T03:38:32.548Z,19.43
2019-06-10T03:39:32.275Z,19.41
2019-06-10T03:40:32.820Z,19.40
2019-06-10T03:41:32.299Z,19.36
2019-06-10T03:42:32.491Z,19.40
2019-06-10T03:43:32.886Z,19.46
2019-06-10T03:44:32.918Z,19.31
2019-06-10T03:45:32.379Z,19.43
2019-06-10T03:46:32.863Z,19.37
2019-06-10T03:47:32.481Z,19.46
2019-06-10T03:48:32.794Z,19.46
2019-06-10T03:49:32.164Z,19.47
2019-06-10T03:50:32.495Z,19.47
2019-06-10T03:51:33.169Z,19.48
2019-06-10T03:52:32.434Z,19.46
2019-06-10T03:53:33.352Z,19.44
2019-06-10T03:54:32.556Z,19.47
2019-06-10T03:55:33.049Z,19.43
2019-06-10T03:56:32.232Z,19.39
2019-06-10T03:57:32.968Z,19.37
2019-06-10T03:58:32.675Z,19.40
2019-06-10T03:59:32.409Z,19.36
2019-06-10T04:00:32.792Z,19.18
2019-06-10T04:01:33.150Z,19.22
2019-06-10T04:02:32.691Z,19.19
2019-06-10T04:03:33.543Z,19.18
2019-06-10T04:04:32.801Z,19.06
2019-06-10T04:05:33.004Z,19.08
2019-06-10T04:06:33.703Z,19.14
2019-06-10T04:07:34.073Z,19.02
2019-06-10T04:08:32.902Z,18.99
2019-06-10T04:09:32.970Z,18.95
2019-06-10T04:10:32.439Z,18.94
2019-06-10T04:11:32.999Z,18.90
2019-06-10T04:12:32.765Z,18.84
2019-06-10T04:13:33.483Z,18.84
2019-06-10T04:14:32.764Z,18.84
2019-06-10T04:15:32.557Z,18.78
2019-06-10T04:16:32.765Z,18.75
2019-06-10T04:17:33.177Z,18.70
2019-06-10T04:18:32.774Z,18.63
2019-06-10T04:19:32.752Z,18.63
2019-06-10T04:20:33.086Z,18.65
2019-06-10T04:21:32.619Z,18.55
2019-06-10T04:22:32.946Z,18.52
2019-06-10T04:23:33.213Z,18.47
2019-06-10T04:24:32.646Z,18.50
2019-06-10T04:25:32.406Z,18.41
2019-06-10T04:26:32.738Z,18.30
2019-06-10T04:27:32.802Z,18.26
2019-06-10T04:28:33.538Z,18.05
2019-06-10T04:29:32.888Z,17.95
2019-06-10T04:30:32.526Z,17.95
2019-06-10T04:31:33.061Z,17.86
2019-06-10T04:32:32.336Z,17.78
2019-06-10T04:33:32.942Z,17.68
2019-06-10T04:34:33.235Z,17.72
2019-06-10T04:35:30.961Z,17.68
2019-06-10T04:36:33.095Z,17.66
2019-06-10T04:37:32.461Z,17.54
2019-06-10T04:38:32.755Z,17.63
2019-06-10T04:39:33.484Z,17.58
2019-06-10T04:44:42.332Z,17.63
2019-06-10T04:45:42.962Z,17.58
2019-06-10T04:46:42.754Z,17.58
2019-06-10T04:47:43.216Z,17.64
2019-06-10T04:48:42.775Z,17.58
2019-06-10T04:49:42.819Z,17.70
2019-06-10T04:50:46.027Z,17.63
2019-06-10T04:51:43.464Z,17.58
2019-06-10T04:52:43.111Z,17.62
2019-06-10T04:53:43.562Z,17.68
2019-06-10T04:54:42.115Z,17.56
2019-06-10T04:55:43.101Z,17.66
2019-06-10T04:56:42.860Z,17.70
2019-06-10T04:57:43.148Z,17.71
2019-06-10T04:58:43.354Z,17.66
2019-06-10T04:59:42.828Z,17.64
2019-06-10T05:00:42.884Z,17.59
2019-06-10T05:01:42.629Z,17.72
2019-06-10T05:02:43.104Z,17.77
2019-06-10T05:03:43.401Z,17.70
2019-06-10T05:04:42.621Z,17.75
2019-06-10T05:05:43.040Z,17.74
2019-06-10T05:06:42.380Z,17.75
2019-06-10T05:07:42.737Z,17.74
2019-06-10T05:08:42.644Z,17.72
2019-06-10T05:09:42.226Z,17.78
2019-06-10T05:10:42.424Z,17.82
2019-06-10T05:11:43.078Z,17.77
2019-06-10T05:12:43.322Z,17.77
2019-06-10T05:13:42.998Z,17.75
2019-06-10T05:14:43.266Z,17.66
2019-06-10T05:15:43.397Z,17.74
2019-06-10T05:16:43.161Z,17.71
2019-06-10T05:17:43.631Z,17.74
2019-06-10T05:18:42.510Z,17.55
2019-06-10T05:19:42.845Z,17.62
2019-06-10T05:20:54.135Z,17.62
2019-06-10T05:21:42.420Z,17.66
2019-06-10T05:22:42.420Z,17.71
2019-06-10T05:23:42.948Z,17.75
2019-06-10T05:24:42.427Z,17.58
2019-06-10T05:25:42.777Z,17.63
2019-06-10T05:26:42.595Z,17.56
2019-06-10T05:27:42.897Z,17.54
2019-06-10T05:28:43.273Z,17.66
2019-06-10T05:29:42.240Z,17.72
2019-06-10T05:30:42.640Z,17.71
2019-06-10T05:31:43.685Z,17.78
2019-06-10T05:32:43.243Z,17.82
2019-06-10T05:33:42.654Z,17.89
2019-06-10T05:34:43.715Z,17.96
2019-06-10T05:35:42.719Z,17.92
2019-06-10T05:36:43.581Z,17.99
2019-06-10T05:37:42.275Z,18.08
2019-06-10T05:38:43.522Z,18.03
2019-06-10T05:39:42.393Z,18.18
2019-06-10T05:40:42.776Z,18.32
2019-06-10T05:41:43.339Z,18.33
2019-06-10T05:42:42.568Z,18.32
2019-06-10T05:43:42.978Z,18.37
2019-06-10T05:44:43.056Z,18.35
2019-06-10T05:45:42.439Z,18.36
2019-06-10T05:46:43.534Z,18.35
2019-06-10T05:47:42.764Z,18.36
2019-06-10T05:48:43.775Z,18.36
2019-06-10T05:49:43.136Z,18.30
2019-06-10T05:50:42.819Z,18.35
2019-06-10T05:51:42.502Z,18.50
2019-06-10T05:52:42.743Z,18.47
2019-06-10T05:53:42.655Z,18.45
2019-06-10T05:54:43.127Z,18.51
2019-06-10T05:55:42.738Z,18.50
2019-06-10T05:56:43.283Z,18.51
2019-06-10T05:57:42.826Z,18.60
2019-06-10T05:58:43.655Z,18.54
2019-06-10T05:59:43.247Z,18.73
2019-06-10T06:00:42.860Z,18.67
2019-06-10T06:01:43.167Z,18.70
2019-06-10T06:02:43.268Z,18.65
2019-06-10T06:03:44.016Z,18.69
2019-06-10T06:04:42.841Z,18.67
2019-06-10T06:05:43.352Z,18.67
2019-06-10T06:06:45.001Z,18.57
2019-06-10T06:07:42.310Z,18.65
2019-06-10T06:08:42.980Z,18.65
2019-06-10T06:09:42.682Z,18.57
2019-06-10T06:10:42.494Z,18.60
2019-06-10T06:11:43.087Z,18.67
2019-06-10T06:12:42.524Z,18.81
2019-06-10T06:13:43.284Z,18.80
2019-06-10T06:14:42.607Z,18.80
2019-06-10T06:15:42.402Z,18.78
2019-06-10T06:16:43.339Z,18.80
2019-06-10T06:17:43.198Z,18.82
2019-06-10T06:18:42.411Z,18.90
2019-06-10T06:19:43.338Z,18.88
2019-06-10T06:20:43.612Z,18.94
2019-06-10T06:21:47.385Z,19.07
2019-06-10T06:22:42.837Z,19.22
2019-06-10T06:23:43.618Z,19.26
2019-06-10T06:24:42.773Z,19.39
2019-06-10T06:25:44.262Z,19.33
2019-06-10T06:26:43.053Z,19.54
2019-06-10T06:27:42.156Z,19.59
2019-06-10T06:28:43.047Z,19.63
2019-06-10T06:29:43.129Z,19.71
2019-06-10T06:30:42.270Z,19.77
2019-06-10T06:31:42.987Z,19.77
2019-06-10T06:32:43.561Z,19.80
2019-06-10T06:33:43.213Z,19.80
2019-06-10T06:34:43.153Z,19.83
2019-06-10T06:35:46.049Z,19.88
2019-06-10T06:36:42.331Z,20.02
2019-06-10T06:37:42.821Z,20.02
2019-06-10T06:38:43.901Z,20.20
2019-06-10T06:39:42.883Z,20.14
2019-06-10T06:40:43.530Z,20.20
2019-06-10T06:41:42.748Z,20.29
2019-06-10T06:42:44.987Z,20.24
2019-06-10T06:43:45.033Z,20.38
2019-06-10T06:44:43.347Z,20.33
2019-06-10T06:45:42.620Z,20.39
2019-06-10T06:46:42.911Z,20.52
2019-06-10T06:47:43.744Z,20.66
2019-06-10T06:48:43.832Z,20.79
2019-06-10T06:49:42.526Z,20.85
2019-06-10T06:51:00.443Z,20.97
2019-06-10T06:51:54.006Z,21.19
2019-06-10T06:53:14.598Z,21.14
2019-06-10T06:53:50.882Z,21.24
2019-06-10T06:54:42.456Z,21.43
2019-06-10T06:55:43.307Z,21.61
2019-06-10T06:56:43.779Z,21.71
2019-06-10T06:57:43.359Z,21.86
2019-06-10T06:58:43.293Z,22.05
2019-06-10T06:59:43.197Z,22.06
2019-06-10T07:00:59.763Z,22.07
2019-06-10T07:01:44.081Z,22.18
2019-06-10T07:02:43.608Z,22.20
2019-06-10T07:03:44.976Z,22.21
2019-06-10T07:04:43.288Z,22.31
2019-06-10T07:05:43.336Z,22.37
2019-06-10T07:06:43.181Z,22.43
2019-06-10T07:07:43.334Z,22.24
2019-06-10T07:08:51.805Z,22.31
2019-06-10T07:09:43.340Z,22.25
2019-06-10T07:10:43.524Z,22.37
2019-06-10T07:11:44.899Z,22.35
2019-06-10T07:12:43.940Z,22.54
2019-06-10T07:13:45.632Z,22.60
2019-06-10T07:14:44.805Z,22.77
2019-06-10T07:15:46.563Z,22.92
2019-06-10T07:16:45.987Z,23.01
2019-06-10T07:17:45.568Z,23.15
2019-06-10T07:18:49.576Z,23.23
2019-06-10T07:19:45.674Z,23.33
2019-06-10T07:20:45.649Z,23.32
2019-06-10T07:22:02.748Z,23.39
2019-06-10T07:22:46.310Z,23.40
2019-06-10T07:23:46.556Z,23.40
2019-06-10T07:24:47.089Z,23.40
2019-06-10T07:25:45.490Z,23.43
2019-06-10T07:26:49.548Z,23.51
2019-06-10T07:27:45.089Z,23.55
2019-06-10T07:28:46.663Z,23.53
2019-06-10T07:29:47.025Z,23.58
2019-06-10T07:30:47.223Z,23.75
2019-06-10T07:31:45.946Z,23.84
2019-06-10T07:32:46.546Z,23.88
2019-06-10T07:33:45.952Z,24.02
2019-06-10T07:34:46.455Z,24.03
2019-06-10T07:35:45.039Z,24.08
2019-06-10T07:36:44.117Z,23.98
2019-06-10T07:37:44.476Z,23.93
2019-06-10T07:38:47.074Z,23.98
2019-06-10T07:39:45.249Z,24.02
2019-06-10T07:40:45.483Z,24.00
2019-06-10T07:41:47.059Z,24.02
2019-06-10T07:43:48.969Z,23.88
2019-06-10T07:44:44.008Z,23.84
2019-06-10T07:45:47.394Z,23.80
2019-06-10T07:46:45.196Z,23.73
2019-06-10T07:47:45.211Z,23.61
2019-06-10T07:48:46.179Z,23.79
2019-06-10T07:49:44.278Z,23.73
2019-06-10T07:50:44.274Z,23.80
2019-06-10T07:51:45.857Z,23.78
2019-06-10T07:52:45.035Z,23.76
2019-06-10T07:53:45.113Z,23.72
2019-06-10T07:54:44.004Z,23.73
2019-06-10T07:55:46.201Z,23.83
2019-06-10T07:56:49.816Z,23.88
2019-06-10T07:57:44.360Z,23.90
2019-06-10T07:58:45.415Z,23.91
2019-06-10T07:59:44.531Z,23.87
2019-06-10T08:00:46.526Z,23.90
2019-06-10T08:01:48.798Z,23.75
2019-06-10T08:02:44.215Z,23.66
2019-06-10T08:03:46.063Z,23.66
2019-06-10T08:04:44.199Z,23.58
2019-06-10T08:05:44.468Z,23.54
2019-06-10T08:06:44.067Z,23.50
2019-06-10T08:07:44.093Z,23.61
2019-06-10T08:08:45.037Z,23.61
2019-06-10T08:09:44.292Z,23.69
2019-06-10T08:10:44.865Z,23.72
2019-06-10T08:11:46.539Z,23.83
2019-06-10T08:12:44.789Z,23.78
2019-06-10T08:13:45.571Z,23.73
2019-06-10T08:14:43.966Z,23.66
2019-06-10T08:15:44.663Z,23.60
2019-06-10T08:16:45.067Z,23.58
2019-06-10T08:17:43.010Z,23.54
2019-06-10T08:19:12.342Z,23.58
2019-06-10T08:19:48.490Z,23.55
2019-06-10T08:20:43.879Z,23.65
2019-06-10T08:21:47.046Z,23.69
2019-06-10T08:22:50.799Z,23.80
2019-06-10T08:23:45.048Z,23.79
2019-06-10T08:24:43.955Z,23.83
2019-06-10T08:25:46.834Z,23.80
2019-06-10T08:26:44.270Z,23.95
2019-06-10T08:27:45.381Z,24.06
2019-06-10T08:28:45.120Z,24.15
2019-06-10T08:29:46.143Z,24.35
2019-06-10T08:30:44.530Z,24.42
2019-06-10T08:31:47.540Z,24.49
2019-06-10T08:32:45.060Z,24.55
2019-06-10T08:33:45.596Z,24.78
2019-06-10T08:34:44.623Z,24.84
2019-06-10T08:35:49.501Z,24.84
2019-06-10T08:36:48.270Z,24.87
2019-06-10T08:37:43.224Z,25.10
2019-06-10T08:38:44.964Z,25.33
2019-06-10T08:39:43.144Z,25.45
2019-06-10T08:40:44.963Z,25.65
2019-06-10T08:41:44.077Z,25.83
2019-06-10T08:42:44.123Z,26.02
2019-06-10T08:43:45.171Z,26.17
2019-06-10T08:44:43.975Z,26.26
2019-06-10T08:45:44.150Z,26.29
2019-06-10T08:46:44.987Z,26.29
2019-06-10T08:47:45.661Z,26.37
2019-06-10T08:48:45.786Z,26.28
2019-06-10T08:49:44.559Z,26.26
2019-06-10T08:50:46.539Z,26.15
2019-06-10T08:51:46.821Z,26.15
2019-06-10T08:52:53.915Z,26.13
2019-06-10T08:53:45.001Z,26.10
2019-06-10T08:54:46.065Z,26.05
2019-06-10T08:55:44.913Z,25.90
2019-06-10T08:56:46.850Z,25.75
2019-06-10T08:57:46.855Z,25.57
2019-06-10T08:58:46.334Z,25.57
2019-06-10T08:59:46.071Z,25.73
2019-06-10T09:00:45.075Z,25.90
2019-06-10T09:01:48.329Z,26.17
2019-06-10T09:02:45.953Z,26.12
2019-06-10T09:03:45.330Z,26.18
2019-06-10T09:04:45.590Z,26.36
2019-06-10T09:05:46.509Z,26.47
2019-06-10T09:06:47.183Z,26.54
2019-06-10T09:07:46.401Z,26.73
2019-06-10T09:08:46.343Z,27.00
2019-06-10T09:09:45.755Z,27.06
2019-06-10T09:10:46.224Z,27.00
2019-06-10T09:11:46.887Z,27.02
2019-06-10T09:12:46.033Z,27.06
2019-06-10T09:13:46.300Z,27.14
2019-06-10T09:14:43.994Z,27.29
2019-06-10T09:15:45.000Z,27.46
2019-06-10T09:16:45.869Z,27.43
2019-06-10T09:17:46.751Z,27.59
2019-06-10T09:18:46.490Z,27.77
2019-06-10T09:19:46.406Z,27.92
2019-06-10T09:20:45.905Z,28.04
2019-06-10T09:21:48.202Z,28.22
2019-06-10T09:22:47.247Z,28.43
2019-06-10T09:23:47.136Z,28.67
2019-06-10T09:24:47.148Z,28.88
2019-06-10T09:25:48.583Z,28.74
2019-06-10T09:26:45.050Z,28.58
2019-06-10T09:27:46.603Z,28.36
2019-06-10T09:28:48.707Z,28.33
2019-06-10T09:29:47.857Z,28.33
2019-06-10T09:30:48.802Z,28.41
2019-06-10T09:31:46.831Z,28.61
2019-06-10T09:32:48.513Z,28.51
2019-06-10T09:33:49.898Z,28.55
2019-06-10T09:34:47.149Z,28.85
2019-06-10T09:35:46.136Z,29.18
2019-06-10T09:36:46.604Z,29.33
2019-06-10T09:37:49.244Z,29.36
2019-06-10T09:38:48.273Z,29.41
2019-06-10T09:39:49.847Z,29.78
2019-06-10T09:40:48.385Z,30.05
2019-06-10T09:41:51.889Z,30.02
2019-06-10T09:42:46.284Z,29.76
2019-06-10T09:43:48.926Z,29.55
2019-06-10T09:44:45.878Z,29.36
2019-06-10T09:45:45.863Z,29.34
2019-06-10T09:46:46.954Z,29.48
2019-06-10T09:47:47.145Z,29.60
2019-06-10T09:48:47.040Z,29.71
2019-06-10T09:49:46.139Z,29.83
2019-06-10T09:50:48.752Z,29.89
2019-06-10T09:51:46.751Z,29.78
2019-06-10T09:52:47.573Z,29.86
2019-06-10T09:53:54.538Z,29.74
2019-06-10T09:54:47.232Z,29.71
2019-06-10T09:55:46.086Z,29.43
2019-06-10T09:56:45.592Z,29.30
2019-06-10T09:57:45.997Z,29.27
2019-06-10T09:58:46.051Z,29.14
2019-06-10T09:59:46.113Z,28.83
2019-06-10T10:00:48.405Z,28.39
2019-06-10T10:01:47.298Z,28.30
2019-06-10T10:02:47.450Z,28.11
2019-06-10T10:03:47.974Z,27.81
2019-06-10T10:04:47.744Z,27.60
2019-06-10T10:05:55.987Z,27.43
2019-06-10T10:06:46.662Z,27.40
2019-06-10T10:07:48.237Z,27.25
2019-06-10T10:08:46.127Z,27.21
2019-06-10T10:09:48.186Z,27.19
2019-06-10T10:10:47.525Z,27.14
2019-06-10T10:11:45.802Z,27.37
2019-06-10T10:12:44.488Z,27.49
2019-06-10T10:13:46.136Z,27.65
2019-06-10T10:14:46.072Z,27.85
2019-06-10T10:15:43.619Z,28.07
2019-06-10T10:16:47.884Z,28.29
2019-06-10T10:17:46.363Z,28.37
2019-06-10T10:18:48.321Z,28.55
2019-06-10T10:19:47.852Z,28.70
2019-06-10T10:20:46.807Z,28.67
2019-06-10T10:21:46.906Z,28.77
2019-06-10T10:22:45.413Z,28.59
2019-06-10T10:23:54.200Z,28.39
2019-06-10T10:24:44.587Z,28.19
2019-06-10T10:25:46.256Z,28.06
2019-06-10T10:26:47.129Z,28.14
2019-06-10T10:27:46.919Z,28.21
2019-06-10T10:28:44.628Z,28.40
2019-06-10T10:29:45.396Z,28.66
2019-06-10T10:30:46.061Z,28.86
2019-06-10T10:31:47.403Z,28.85
2019-06-10T10:32:47.115Z,28.77
2019-06-10T10:33:44.293Z,28.88
2019-06-10T10:34:45.282Z,28.96
2019-06-10T10:35:46.059Z,28.85
2019-06-10T10:36:45.401Z,28.92
2019-06-10T10:37:44.576Z,29.05
2019-06-10T10:38:44.742Z,29.16
2019-06-10T10:39:44.688Z,29.18
2019-06-10T10:40:45.719Z,29.23
2019-06-10T10:41:45.174Z,29.27
2019-06-10T10:42:48.554Z,29.30
2019-06-10T10:43:46.843Z,29.26
2019-06-10T10:44:47.684Z,29.26
2019-06-10T10:45:47.440Z,28.98
2019-06-10T10:46:44.234Z,28.86
2019-06-10T10:47:44.906Z,28.73
2019-06-10T10:48:44.907Z,28.58
2019-06-10T10:49:44.944Z,28.59
2019-06-10T10:50:44.248Z,28.77
2019-06-10T10:51:44.841Z,28.77
2019-06-10T10:52:45.054Z,28.93
2019-06-10T10:53:48.456Z,29.15
2019-06-10T10:54:45.106Z,29.52
2019-06-10T10:55:45.183Z,29.86
2019-06-10T10:56:46.189Z,30.24
2019-06-10T10:57:43.785Z,30.67
2019-06-10T10:58:46.979Z,31.01
2019-06-10T10:59:45.099Z,31.12
2019-06-10T11:00:45.473Z,31.16
2019-06-10T11:01:44.434Z,31.20
2019-06-10T11:02:44.968Z,31.17
2019-06-10T11:03:45.734Z,31.26
2019-06-10T11:04:44.269Z,31.29
2019-06-10T11:05:46.304Z,31.16
2019-06-10T11:06:44.466Z,31.16
2019-06-10T11:07:44.481Z,31.19
2019-06-10T11:08:46.263Z,31.17
2019-06-10T11:09:44.787Z,31.16
2019-06-10T11:10:45.738Z,31.01
2019-06-10T11:11:45.526Z,31.01
2019-06-10T11:12:44.956Z,30.95
2019-06-10T11:13:45.414Z,30.89
2019-06-10T11:14:44.882Z,30.91
2019-06-10T11:15:45.683Z,30.83
2019-06-10T11:16:45.253Z,30.65
2019-06-10T11:17:45.093Z,30.67
2019-06-10T11:18:45.195Z,30.54
2019-06-10T11:19:45.173Z,30.54
2019-06-10T11:20:45.217Z,30.61
2019-06-10T11:21:45.221Z,30.53
2019-06-10T11:22:45.727Z,30.53
2019-06-10T11:23:44.087Z,30.46
2019-06-10T11:24:44.932Z,30.45
2019-06-10T11:25:44.113Z,30.34
2019-06-10T11:26:44.125Z,30.42
2019-06-10T11:27:44.132Z,30.27
2019-06-10T11:28:45.243Z,30.17
2019-06-10T11:29:44.161Z,30.15
2019-06-10T11:30:45.247Z,30.07
2019-06-10T11:31:44.319Z,30.08
2019-06-10T11:32:45.998Z,30.01
2019-06-10T11:33:44.203Z,30.04
2019-06-10T11:34:44.221Z,29.98
2019-06-10T11:35:44.226Z,30.07
2019-06-10T11:36:44.235Z,30.01
2019-06-10T11:37:44.253Z,30.04
2019-06-10T11:38:44.262Z,30.02
2019-06-10T11:39:44.269Z,30.11
2019-06-10T11:40:44.294Z,30.13
2019-06-10T11:41:44.293Z,29.98
2019-06-10T11:42:44.306Z,30.04
2019-06-10T11:43:44.320Z,30.15
2019-06-10T11:44:44.326Z,30.07
2019-06-10T11:45:48.922Z,30.13
2019-06-10T11:46:44.346Z,30.19
2019-06-10T11:47:44.357Z,30.11
2019-06-10T11:48:44.486Z,30.10
2019-06-10T11:49:44.384Z,30.10
2019-06-10T11:50:44.393Z,30.04
2019-06-10T11:51:44.403Z,30.07
2019-06-10T11:52:44.419Z,30.00
2019-06-10T11:53:44.433Z,30.01
2019-06-10T11:54:55.860Z,30.01
2019-06-10T11:55:44.447Z,30.01
2019-06-10T11:56:44.461Z,29.92
2019-06-10T11:57:44.471Z,29.82
2019-06-10T11:58:44.487Z,29.67
2019-06-10T11:59:44.509Z,29.46
2019-06-10T12:00:44.502Z,29.36
2019-06-10T12:01:44.513Z,29.31
2019-06-10T12:02:44.933Z,29.45
2019-06-10T12:03:44.536Z,29.45
2019-06-10T12:04:44.543Z,29.45
2019-06-10T12:05:44.558Z,29.41
2019-06-10T12:06:44.564Z,29.23
2019-06-10T12:07:44.580Z,29.02
2019-06-10T12:08:44.596Z,28.98
2019-06-10T12:09:44.621Z,29.08
2019-06-10T12:10:44.609Z,28.89
2019-06-10T12:11:44.621Z,28.86
2019-06-10T12:12:44.631Z,28.68
2019-06-10T12:13:44.640Z,28.67
2019-06-10T12:14:44.653Z,28.76
2019-06-10T12:16:30.495Z,28.71
2019-06-10T12:17:17.781Z,28.88
2019-06-10T12:17:51.047Z,28.89
2019-06-10T12:18:44.691Z,28.95
2019-06-10T12:19:44.704Z,28.93
2019-06-10T12:20:44.713Z,29.00
2019-06-10T12:21:44.721Z,29.02
2019-06-10T12:22:44.732Z,29.16
2019-06-10T12:23:44.757Z,29.14
2019-06-10T12:24:44.752Z,29.16
2019-06-10T12:25:47.780Z,29.19
2019-06-10T12:26:44.778Z,29.24
2019-06-10T12:27:44.786Z,29.27
2019-06-10T12:28:44.794Z,29.36
2019-06-10T12:29:44.808Z,29.31
2019-06-10T12:30:44.820Z,29.57
2019-06-10T12:31:44.819Z,29.46
2019-06-10T12:32:44.831Z,29.46
2019-06-10T12:33:44.843Z,29.45
2019-06-10T12:34:46.320Z,29.55
2019-06-10T12:35:44.863Z,29.52
2019-06-10T12:36:44.879Z,29.46
2019-06-10T12:37:44.886Z,29.58
2019-06-10T12:38:44.905Z,29.33
2019-06-10T12:39:44.899Z,29.36
2019-06-10T12:40:44.916Z,29.43
2019-06-10T12:41:45.004Z,29.28
2019-06-10T12:42:44.933Z,29.21
2019-06-10T12:43:44.941Z,29.09
2019-06-10T12:44:44.956Z,28.95
2019-06-10T12:45:45.043Z,28.74
2019-06-10T12:46:44.988Z,28.74
2019-06-10T12:47:44.979Z,28.64
2019-06-10T12:48:44.990Z,28.61
2019-06-10T12:49:44.998Z,28.54
2019-06-10T12:50:45.014Z,28.44
2019-06-10T12:51:45.018Z,28.46
2019-06-10T12:52:45.079Z,28.55
2019-06-10T12:53:45.039Z,28.59
2019-06-10T12:54:45.051Z,28.66
2019-06-10T12:55:47.122Z,28.76
2019-06-10T12:56:45.067Z,28.85
2019-06-10T12:57:45.078Z,28.83